createdAt,value
2023-02-05T00:00:40.010Z,1012.87
2023-02-05T00:01:40.007Z,1012.90
2023-02-05T00:02:40.199Z,1012.88
2023-02-05T00:03:40.107Z,1012.86
2023-02-05T00:04:39.959Z,1012.88
2023-02-05T00:05:39.939Z,1012.86
2023-02-05T00:06:39.893Z,1012.85
2023-02-05T00:07:39.948Z,1012.86
2023-02-05T00:08:39.889Z,1012.89
2023-02-05T00:09:39.878Z,1012.84
2023-02-05T00:10:40.051Z,1012.84
2023-02-05T00:11:39.837Z,1012.81
2023-02-05T00:12:39.825Z,1012.82
2023-02-05T00:13:39.796Z,1012.86
2023-02-05T00:14:39.760Z,1012.84
2023-02-05T00:15:39.737Z,1012.85
2023-02-05T00:16:39.837Z,1012.83
2023-02-05T00:17:39.735Z,1012.86
2023-02-05T00:18:39.716Z,1012.85
2023-02-05T00:19:39.675Z,1012.81
2023-02-05T00:20:39.666Z,1012.83
2023-02-05T00:21:39.650Z,1012.84
2023-02-05T00:22:39.648Z,1012.81
2023-02-05T00:23:39.664Z,1012.83
2023-02-05T00:24:39.612Z,1012.79
2023-02-05T00:25:39.621Z,1012.83
2023-02-05T00:26:39.584Z,1012.80
2023-02-05T00:27:39.637Z,1012.82
2023-02-05T00:28:39.551Z,1012.88
2023-02-05T00:29:39.543Z,1012.91
2023-02-05T00:30:39.608Z,1012.91
2023-02-05T00:31:39.616Z,1012.89
2023-02-05T00:32:39.482Z,1012.91
2023-02-05T00:33:39.510Z,1012.87
2023-02-05T00:34:39.459Z,1012.85
2023-02-05T00:35:39.444Z,1012.88
2023-02-05T00:36:39.441Z,1012.89
2023-02-05T00:37:39.419Z,1012.89
2023-02-05T00:38:39.384Z,1012.89
2023-02-05T00:39:39.367Z,1012.92
2023-02-05T00:40:39.354Z,1012.90
2023-02-05T00:41:39.346Z,1012.87
2023-02-05T00:42:39.305Z,1012.90
2023-02-05T00:43:39.323Z,1012.87
2023-02-05T00:44:39.275Z,1012.86
2023-02-05T00:45:39.266Z,1012.86
2023-02-05T00:46:39.244Z,1012.90
2023-02-05T00:47:39.240Z,1012.86
2023-02-05T00:48:39.268Z,1012.89
2023-02-05T00:49:39.419Z,1012.86
2023-02-05T00:50:39.183Z,1012.89
2023-02-05T00:51:39.178Z,1012.91
2023-02-05T00:52:39.361Z,1012.90
2023-02-05T00:53:39.144Z,1012.92
2023-02-05T00:54:39.115Z,1012.83
2023-02-05T00:55:39.121Z,1012.81
2023-02-05T00:56:39.073Z,1012.77
2023-02-05T00:57:39.078Z,1012.79
2023-02-05T00:58:39.081Z,1012.77
2023-02-05T00:59:39.039Z,1012.80
2023-02-05T01:00:39.025Z,1012.78
2023-02-05T01:01:39.028Z,1012.80
2023-02-05T01:02:39.087Z,1012.80
2023-02-05T01:03:39.006Z,1012.78
2023-02-05T01:04:38.952Z,1012.81
2023-02-05T01:05:38.992Z,1012.74
2023-02-05T01:06:38.932Z,1012.75
2023-02-05T01:07:38.961Z,1012.71
2023-02-05T01:08:38.880Z,1012.68
2023-02-05T01:09:38.930Z,1012.63
2023-02-05T01:10:38.853Z,1012.62
2023-02-05T01:11:39.084Z,1012.60
2023-02-05T01:12:38.860Z,1012.59
2023-02-05T01:13:38.840Z,1012.57
2023-02-05T01:14:38.792Z,1012.57
2023-02-05T01:15:38.907Z,1012.62
2023-02-05T01:16:38.792Z,1012.59
2023-02-05T01:17:38.771Z,1012.56
2023-02-05T01:18:38.790Z,1012.54
2023-02-05T01:19:38.737Z,1012.57
2023-02-05T01:20:38.690Z,1012.57
2023-02-05T01:21:38.710Z,1012.55
2023-02-05T01:22:38.681Z,1012.55
2023-02-05T01:23:38.657Z,1012.53
2023-02-05T01:24:38.628Z,1012.48
2023-02-05T01:25:38.618Z,1012.47
2023-02-05T01:26:38.607Z,1012.43
2023-02-05T01:27:38.601Z,1012.45
2023-02-05T01:28:38.606Z,1012.41
2023-02-05T01:29:38.574Z,1012.44
2023-02-05T01:30:38.634Z,1012.43
2023-02-05T01:31:38.670Z,1012.43
2023-02-05T01:32:38.508Z,1012.42
2023-02-05T01:33:38.478Z,1012.41
2023-02-05T01:34:38.477Z,1012.40
2023-02-05T01:35:38.514Z,1012.37
2023-02-05T01:36:38.441Z,1012.37
2023-02-05T01:37:38.631Z,1012.32
2023-02-05T01:38:38.406Z,1012.32
2023-02-05T01:39:38.402Z,1012.29
2023-02-05T01:40:38.384Z,1012.30
2023-02-05T01:41:38.962Z,1012.29
2023-02-05T01:42:38.336Z,1012.28
2023-02-05T01:43:38.565Z,1012.24
2023-02-05T01:44:38.324Z,1012.22
2023-02-05T01:45:38.296Z,1012.17
2023-02-05T01:46:38.352Z,1012.17
2023-02-05T01:47:38.244Z,1012.13
2023-02-05T01:48:38.241Z,1012.11
2023-02-05T01:49:38.397Z,1012.08
2023-02-05T01:50:38.598Z,1012.11
2023-02-05T01:51:38.384Z,1012.10
2023-02-05T01:52:38.606Z,1012.09
2023-02-05T01:53:38.147Z,1012.07
2023-02-05T01:54:38.147Z,1012.09
2023-02-05T01:55:38.112Z,1012.06
2023-02-05T01:56:38.104Z,1012.10
2023-02-05T01:57:38.064Z,1012.05
2023-02-05T01:58:38.107Z,1012.03
2023-02-05T01:59:38.032Z,1012.07
2023-02-05T02:00:38.014Z,1012.05
2023-02-05T02:01:38.048Z,1012.06
2023-02-05T02:02:38.020Z,1011.99
2023-02-05T02:03:38.014Z,1011.95
2023-02-05T02:04:37.963Z,1011.93
2023-02-05T02:05:37.939Z,1011.91
2023-02-05T02:06:37.937Z,1011.89
2023-02-05T02:07:37.928Z,1011.90
2023-02-05T02:08:37.884Z,1011.90
2023-02-05T02:09:37.893Z,1011.89
2023-02-05T02:10:37.841Z,1011.84
2023-02-05T02:11:37.861Z,1011.79
2023-02-05T02:12:37.816Z,1011.82
2023-02-05T02:13:37.920Z,1011.78
2023-02-05T02:14:37.777Z,1011.74
2023-02-05T02:15:37.802Z,1011.73
2023-02-05T02:16:37.763Z,1011.75
2023-02-05T02:17:37.764Z,1011.72
2023-02-05T02:18:37.724Z,1011.71
2023-02-05T02:19:37.727Z,1011.67
2023-02-05T02:20:37.743Z,1011.65
2023-02-05T02:21:37.705Z,1011.60
2023-02-05T02:22:37.668Z,1011.65
2023-02-05T02:23:37.676Z,1011.62
2023-02-05T02:24:37.646Z,1011.58
2023-02-05T02:25:37.663Z,1011.58
2023-02-05T02:26:37.585Z,1011.53
2023-02-05T02:27:37.602Z,1011.52
2023-02-05T02:28:37.572Z,1011.50
2023-02-05T02:29:37.736Z,1011.51
2023-02-05T02:30:37.590Z,1011.49
2023-02-05T02:31:37.589Z,1011.48
2023-02-05T02:32:37.490Z,1011.53
2023-02-05T02:33:37.678Z,1011.54
2023-02-05T02:34:37.482Z,1011.55
2023-02-05T02:35:37.463Z,1011.55
2023-02-05T02:36:37.427Z,1011.56
2023-02-05T02:37:37.409Z,1011.55
2023-02-05T02:38:37.402Z,1011.56
2023-02-05T02:39:37.384Z,1011.60
2023-02-05T02:40:37.377Z,1011.58
2023-02-05T02:41:37.381Z,1011.56
2023-02-05T02:42:37.324Z,1011.58
2023-02-05T02:43:37.306Z,1011.56
2023-02-05T02:44:37.497Z,1011.55
2023-02-05T02:45:37.291Z,1011.52
2023-02-05T02:46:37.319Z,1011.49
2023-02-05T02:47:37.246Z,1011.50
2023-02-05T02:48:37.223Z,1011.46
2023-02-05T02:49:37.212Z,1011.43
2023-02-05T02:50:37.199Z,1011.42
2023-02-05T02:51:37.193Z,1011.39
2023-02-05T02:52:37.172Z,1011.38
2023-02-05T02:53:37.172Z,1011.38
2023-02-05T02:54:37.133Z,1011.36
2023-02-05T02:55:37.327Z,1011.33
2023-02-05T02:56:37.131Z,1011.33
2023-02-05T02:57:37.105Z,1011.27
2023-02-05T02:58:37.069Z,1011.24
2023-02-05T02:59:37.062Z,1011.22
2023-02-05T03:00:37.065Z,1011.23
2023-02-05T03:01:37.041Z,1011.22
2023-02-05T03:02:37.014Z,1011.16
2023-02-05T03:03:37.049Z,1011.15
2023-02-05T03:04:37.002Z,1011.16
2023-02-05T03:05:37.022Z,1011.12
2023-02-05T03:06:36.956Z,1011.12
2023-02-05T03:07:36.948Z,1011.09
2023-02-05T03:08:36.905Z,1011.09
2023-02-05T03:09:36.866Z,1011.08
2023-02-05T03:10:36.869Z,1011.13
2023-02-05T03:11:36.853Z,1011.11
2023-02-05T03:12:36.841Z,1011.15
2023-02-05T03:13:36.873Z,1011.16
2023-02-05T03:14:36.873Z,1011.18
2023-02-05T03:15:36.770Z,1011.17
2023-02-05T03:16:36.829Z,1011.12
2023-02-05T03:17:36.767Z,1011.13
2023-02-05T03:18:36.724Z,1011.11
2023-02-05T03:19:36.751Z,1011.14
2023-02-05T03:20:36.717Z,1011.14
2023-02-05T03:21:36.719Z,1011.09
2023-02-05T03:22:36.668Z,1011.03
2023-02-05T03:23:36.642Z,1011.06
2023-02-05T03:24:36.702Z,1011.01
2023-02-05T03:25:36.795Z,1011.04
2023-02-05T03:26:36.612Z,1011.03
2023-02-05T03:27:36.582Z,1011.00
2023-02-05T03:28:36.566Z,1011.02
2023-02-05T03:29:36.561Z,1011.00
2023-02-05T03:30:36.557Z,1011.02
2023-02-05T03:31:36.504Z,1011.01
2023-02-05T03:32:36.489Z,1010.97
2023-02-05T03:33:36.472Z,1010.96
2023-02-05T03:34:36.467Z,1011.00
2023-02-05T03:35:36.816Z,1010.99
2023-02-05T03:36:36.672Z,1010.98
2023-02-05T03:37:36.839Z,1011.01
2023-02-05T03:38:36.425Z,1010.97
2023-02-05T03:39:36.393Z,1010.99
2023-02-05T03:40:36.340Z,1010.97
2023-02-05T03:41:36.619Z,1010.93
2023-02-05T03:42:36.362Z,1010.91
2023-02-05T03:43:36.289Z,1010.90
2023-02-05T03:44:36.300Z,1010.88
2023-02-05T03:45:37.060Z,1010.86
2023-02-05T03:46:36.271Z,1010.84
2023-02-05T03:47:36.236Z,1010.85
2023-02-05T03:48:36.425Z,1010.89
2023-02-05T03:49:36.200Z,1010.94
2023-02-05T03:50:36.175Z,1010.93
2023-02-05T03:51:36.180Z,1010.92
2023-02-05T03:52:36.212Z,1010.99
2023-02-05T03:53:36.148Z,1011.04
2023-02-05T03:54:36.139Z,1011.06
2023-02-05T03:55:36.329Z,1011.06
2023-02-05T03:56:36.084Z,1011.11
2023-02-05T03:57:36.099Z,1011.15
2023-02-05T03:58:36.067Z,1011.19
2023-02-05T03:59:36.045Z,1011.22
2023-02-05T04:00:36.221Z,1011.23
2023-02-05T04:01:36.028Z,1011.28
2023-02-05T04:02:36.050Z,1011.29
2023-02-05T04:03:35.965Z,1011.33
2023-02-05T04:04:35.941Z,1011.32
2023-02-05T04:05:36.328Z,1011.32
2023-02-05T04:06:35.922Z,1011.31
2023-02-05T04:07:35.892Z,1011.29
2023-02-05T04:08:35.869Z,1011.30
2023-02-05T04:09:35.842Z,1011.29
2023-02-05T04:10:36.031Z,1011.33
2023-02-05T04:11:36.014Z,1011.34
2023-02-05T04:12:35.804Z,1011.33
2023-02-05T04:13:35.972Z,1011.37
2023-02-05T04:14:35.780Z,1011.36
2023-02-05T04:15:36.044Z,1011.37
2023-02-05T04:16:35.834Z,1011.36
2023-02-05T04:17:35.740Z,1011.41
2023-02-05T04:18:35.722Z,1011.39
2023-02-05T04:19:35.696Z,1011.38
2023-02-05T04:20:35.878Z,1011.41
2023-02-05T04:21:35.649Z,1011.39
2023-02-05T04:22:35.616Z,1011.36
2023-02-05T04:23:35.596Z,1011.34
2023-02-05T04:24:35.574Z,1011.35
2023-02-05T04:25:36.372Z,1011.35
2023-02-05T04:26:35.576Z,1011.37
2023-02-05T04:27:35.572Z,1011.37
2023-02-05T04:28:35.542Z,1011.33
2023-02-05T04:29:35.509Z,1011.30
2023-02-05T04:30:35.523Z,1011.30
2023-02-05T04:31:35.558Z,1011.30
2023-02-05T04:32:35.457Z,1011.32
2023-02-05T04:33:35.463Z,1011.30
2023-02-05T04:34:35.660Z,1011.26
2023-02-05T04:35:35.729Z,1011.22
2023-02-05T04:36:35.413Z,1011.25
2023-02-05T04:37:35.371Z,1011.22
2023-02-05T04:38:35.378Z,1011.22
2023-02-05T04:39:35.345Z,1011.21
2023-02-05T04:40:35.315Z,1011.21
2023-02-05T04:41:35.367Z,1011.21
2023-02-05T04:42:35.302Z,1011.17
2023-02-05T04:43:35.272Z,1011.18
2023-02-05T04:44:35.275Z,1011.16
2023-02-05T04:45:35.595Z,1011.16
2023-02-05T04:46:35.219Z,1011.18
2023-02-05T04:47:35.195Z,1011.17
2023-02-05T04:48:35.391Z,1011.20
2023-02-05T04:49:35.408Z,1011.22
2023-02-05T04:50:35.158Z,1011.21
2023-02-05T04:51:35.152Z,1011.24
2023-02-05T04:52:35.124Z,1011.31
2023-02-05T04:53:35.110Z,1011.32
2023-02-05T04:54:35.105Z,1011.34
2023-02-05T04:55:35.425Z,1011.31
2023-02-05T04:56:35.050Z,1011.33
2023-02-05T04:57:35.038Z,1011.33
2023-02-05T04:58:35.021Z,1011.33
2023-02-05T04:59:35.010Z,1011.30
2023-02-05T05:00:35.018Z,1011.31
2023-02-05T05:01:35.221Z,1011.32
2023-02-05T05:02:35.047Z,1011.31
2023-02-05T05:03:34.920Z,1011.33
2023-02-05T05:04:34.931Z,1011.31
2023-02-05T05:05:35.293Z,1011.27
2023-02-05T05:06:34.948Z,1011.28
2023-02-05T05:07:34.898Z,1011.26
2023-02-05T05:08:34.889Z,1011.26
2023-02-05T05:09:34.845Z,1011.26
2023-02-05T05:10:34.812Z,1011.29
2023-02-05T05:11:34.794Z,1011.27
2023-02-05T05:12:34.780Z,1011.23
2023-02-05T05:13:34.773Z,1011.26
2023-02-05T05:14:34.740Z,1011.25
2023-02-05T05:15:35.144Z,1011.24
2023-02-05T05:16:34.701Z,1011.24
2023-02-05T05:17:34.722Z,1011.26
2023-02-05T05:18:34.732Z,1011.24
2023-02-05T05:19:34.652Z,1011.23
2023-02-05T05:20:34.632Z,1011.28
2023-02-05T05:21:34.662Z,1011.21
2023-02-05T05:22:34.617Z,1011.20
2023-02-05T05:23:34.614Z,1011.20
2023-02-05T05:24:34.559Z,1011.22
2023-02-05T05:25:34.886Z,1011.27
2023-02-05T05:26:34.566Z,1011.22
2023-02-05T05:27:34.523Z,1011.25
2023-02-05T05:28:34.485Z,1011.23
2023-02-05T05:29:34.466Z,1011.23
2023-02-05T05:30:34.513Z,1011.23
2023-02-05T05:31:34.460Z,1011.18
2023-02-05T05:32:34.471Z,1011.16
2023-02-05T05:33:34.430Z,1011.15
2023-02-05T05:34:34.615Z,1011.11
2023-02-05T05:35:34.728Z,1011.12
2023-02-05T05:36:34.409Z,1011.10
2023-02-05T05:37:34.412Z,1011.11
2023-02-05T05:38:34.378Z,1011.12
2023-02-05T05:39:34.328Z,1011.21
2023-02-05T05:40:34.286Z,1011.18
2023-02-05T05:41:34.303Z,1011.20
2023-02-05T05:42:34.253Z,1011.19
2023-02-05T05:43:34.280Z,1011.14
2023-02-05T05:44:34.263Z,1011.10
2023-02-05T05:45:34.546Z,1011.06
2023-02-05T05:46:34.201Z,1011.04
2023-02-05T05:47:34.224Z,1011.07
2023-02-05T05:48:34.151Z,1011.06
2023-02-05T05:49:34.359Z,1011.06
2023-02-05T05:50:34.122Z,1011.08
2023-02-05T05:51:34.131Z,1011.08
2023-02-05T05:52:34.097Z,1011.13
2023-02-05T05:53:34.130Z,1011.08
2023-02-05T05:54:34.039Z,1011.08
2023-02-05T05:55:34.317Z,1011.09
2023-02-05T05:56:34.016Z,1011.09
2023-02-05T05:57:34.005Z,1011.09
2023-02-05T05:58:34.041Z,1011.05
2023-02-05T05:59:34.213Z,1011.00
2023-02-05T06:00:33.962Z,1010.97
2023-02-05T06:01:33.919Z,1010.97
2023-02-05T06:02:33.970Z,1010.90
2023-02-05T06:03:33.899Z,1010.94
2023-02-05T06:04:33.888Z,1011.00
2023-02-05T06:05:34.204Z,1010.99
2023-02-05T06:06:33.824Z,1011.01
2023-02-05T06:07:33.806Z,1011.03
2023-02-05T06:08:33.807Z,1010.96
2023-02-05T06:09:33.842Z,1010.95
2023-02-05T06:10:33.780Z,1010.90
2023-02-05T06:11:33.773Z,1010.91
2023-02-05T06:12:33.732Z,1010.91
2023-02-05T06:13:33.727Z,1010.92
2023-02-05T06:14:33.754Z,1010.93
2023-02-05T06:15:34.117Z,1010.96
2023-02-05T06:16:33.659Z,1011.02
2023-02-05T06:17:33.670Z,1011.02
2023-02-05T06:18:33.677Z,1011.04
2023-02-05T06:19:33.610Z,1011.06
2023-02-05T06:20:33.615Z,1011.07
2023-02-05T06:21:33.576Z,1011.08
2023-02-05T06:22:33.572Z,1011.05
2023-02-05T06:23:33.591Z,1011.06
2023-02-05T06:24:33.524Z,1011.06
2023-02-05T06:25:33.881Z,1011.03
2023-02-05T06:26:33.476Z,1011.01
2023-02-05T06:27:33.487Z,1010.96
2023-02-05T06:28:33.482Z,1010.96
2023-02-05T06:29:33.429Z,1010.93
2023-02-05T06:30:33.434Z,1010.89
2023-02-05T06:31:33.542Z,1010.91
2023-02-05T06:32:33.577Z,1010.91
2023-02-05T06:33:33.383Z,1010.88
2023-02-05T06:34:33.408Z,1010.90
2023-02-05T06:35:33.814Z,1010.91
2023-02-05T06:36:33.340Z,1010.92
2023-02-05T06:37:46.891Z,1011.00
2023-02-05T06:38:33.354Z,1010.98
2023-02-05T06:39:33.275Z,1010.99
2023-02-05T06:40:33.241Z,1010.96
2023-02-05T06:41:33.283Z,1010.96
2023-02-05T06:42:33.252Z,1010.99
2023-02-05T06:43:33.220Z,1011.00
2023-02-05T06:44:33.172Z,1011.03
2023-02-05T06:45:33.753Z,1011.05
2023-02-05T06:46:33.198Z,1011.02
2023-02-05T06:47:33.122Z,1010.97
2023-02-05T06:48:33.123Z,1010.96
2023-02-05T06:49:33.332Z,1010.95
2023-02-05T06:50:33.099Z,1010.93
2023-02-05T06:51:33.054Z,1010.96
2023-02-05T06:52:33.082Z,1010.96
2023-02-05T06:53:33.065Z,1011.02
2023-02-05T06:54:33.004Z,1010.99
2023-02-05T06:55:33.447Z,1010.98
2023-02-05T06:56:33.020Z,1010.91
2023-02-05T06:57:33.001Z,1010.86
2023-02-05T06:58:33.006Z,1010.86
2023-02-05T06:59:32.978Z,1010.85
2023-02-05T07:00:33.068Z,1010.92
2023-02-05T07:01:32.900Z,1010.93
2023-02-05T07:02:33.020Z,1010.93
2023-02-05T07:03:32.853Z,1010.91
2023-02-05T07:04:32.828Z,1010.90
2023-02-05T07:05:33.336Z,1010.91
2023-02-05T07:06:32.808Z,1010.90
2023-02-05T07:07:32.804Z,1010.88
2023-02-05T07:08:32.756Z,1010.92
2023-02-05T07:09:32.748Z,1010.97
2023-02-05T07:10:32.940Z,1011.07
2023-02-05T07:11:32.722Z,1011.14
2023-02-05T07:12:32.690Z,1011.10
2023-02-05T07:13:32.707Z,1011.13
2023-02-05T07:14:32.699Z,1011.09
2023-02-05T07:15:32.970Z,1010.99
2023-02-05T07:16:32.686Z,1010.93
2023-02-05T07:17:32.655Z,1010.80
2023-02-05T07:18:32.641Z,1010.79
2023-02-05T07:19:32.586Z,1010.78
2023-02-05T07:20:32.592Z,1010.74
2023-02-05T07:21:32.576Z,1010.71
2023-02-05T07:22:32.550Z,1010.75
2023-02-05T07:23:32.566Z,1010.75
2023-02-05T07:24:32.542Z,1010.75
2023-02-05T07:25:33.061Z,1010.73
2023-02-05T07:26:32.484Z,1010.73
2023-02-05T07:27:32.521Z,1010.71
2023-02-05T07:28:32.457Z,1010.68
2023-02-05T07:29:32.494Z,1010.66
2023-02-05T07:30:32.420Z,1010.65
2023-02-05T07:31:32.535Z,1010.59
2023-02-05T07:32:32.386Z,1010.62
2023-02-05T07:33:32.371Z,1010.63
2023-02-05T07:34:32.348Z,1010.63
2023-02-05T07:35:32.592Z,1010.61
2023-02-05T07:36:32.330Z,1010.58
2023-02-05T07:37:32.316Z,1010.64
2023-02-05T07:38:32.300Z,1010.66
2023-02-05T07:39:32.285Z,1010.59
2023-02-05T07:40:32.284Z,1010.64
2023-02-05T07:41:32.261Z,1010.72
2023-02-05T07:42:32.222Z,1010.73
2023-02-05T07:43:32.212Z,1010.76
2023-02-05T07:44:32.206Z,1010.73
2023-02-05T07:45:32.557Z,1010.68
2023-02-05T07:46:32.229Z,1010.67
2023-02-05T07:47:32.168Z,1010.73
2023-02-05T07:48:32.144Z,1010.70
2023-02-05T07:49:32.131Z,1010.59
2023-02-05T07:50:32.134Z,1010.57
2023-02-05T07:51:32.083Z,1010.58
2023-02-05T07:52:32.060Z,1010.60
2023-02-05T07:53:32.046Z,1010.57
2023-02-05T07:54:32.046Z,1010.66
2023-02-05T07:55:32.228Z,1010.60
2023-02-05T07:56:32.012Z,1010.53
2023-02-05T07:57:32.004Z,1010.52
2023-02-05T07:58:32.196Z,1010.51
2023-02-05T07:59:31.996Z,1010.52
2023-02-05T08:00:31.996Z,1010.51
2023-02-05T08:01:31.980Z,1010.55
2023-02-05T08:02:31.928Z,1010.51
2023-02-05T08:03:31.952Z,1010.50
2023-02-05T08:04:31.936Z,1010.49
2023-02-05T08:05:32.099Z,1010.51
2023-02-05T08:06:31.906Z,1010.48
2023-02-05T08:07:32.075Z,1010.45
2023-02-05T08:08:31.868Z,1010.44
2023-02-05T08:09:31.832Z,1010.41
2023-02-05T08:10:32.065Z,1010.39
2023-02-05T08:11:32.743Z,1010.36
2023-02-05T08:12:31.823Z,1010.36
2023-02-05T08:13:31.800Z,1010.35
2023-02-05T08:14:31.760Z,1010.32
2023-02-05T08:15:31.831Z,1010.28
2023-02-05T08:16:31.803Z,1010.32
2023-02-05T08:17:31.727Z,1010.29
2023-02-05T08:18:31.724Z,1010.28
2023-02-05T08:19:31.697Z,1010.24
2023-02-05T08:20:31.692Z,1010.25
2023-02-05T08:21:31.672Z,1010.21
2023-02-05T08:22:31.648Z,1010.24
2023-02-05T08:23:31.657Z,1010.22
2023-02-05T08:24:31.627Z,1010.29
2023-02-05T08:25:32.088Z,1010.27
2023-02-05T08:26:31.600Z,1010.25
2023-02-05T08:27:31.600Z,1010.24
2023-02-05T08:28:31.555Z,1010.19
2023-02-05T08:29:31.610Z,1010.26
2023-02-05T08:30:31.614Z,1010.19
2023-02-05T08:31:31.595Z,1010.19
2023-02-05T08:32:31.503Z,1010.19
2023-02-05T08:33:31.552Z,1010.18
2023-02-05T08:34:31.460Z,1010.16
2023-02-05T08:35:31.492Z,1010.17
2023-02-05T08:36:31.440Z,1010.16
2023-02-05T08:37:31.435Z,1010.13
2023-02-05T08:38:31.386Z,1010.15
2023-02-05T08:39:31.392Z,1010.11
2023-02-05T08:40:31.379Z,1010.10
2023-02-05T08:41:31.356Z,1010.08
2023-02-05T08:42:31.333Z,1010.09
2023-02-05T08:43:31.334Z,1010.08
2023-02-05T08:44:31.295Z,1010.06
2023-02-05T08:45:31.341Z,1010.04
2023-02-05T08:46:40.366Z,1010.01
2023-02-05T08:47:31.264Z,1010.04
2023-02-05T08:48:31.229Z,1010.04
2023-02-05T08:49:31.279Z,1010.00
2023-02-05T08:50:31.228Z,1010.03
2023-02-05T08:51:31.191Z,1010.01
2023-02-05T08:52:31.203Z,1010.02
2023-02-05T08:53:31.177Z,1010.02
2023-02-05T08:54:31.157Z,1009.99
2023-02-05T08:55:31.151Z,1009.92
2023-02-05T08:56:31.341Z,1009.91
2023-02-05T08:57:31.115Z,1009.92
2023-02-05T08:58:31.106Z,1009.93
2023-02-05T08:59:31.135Z,1009.95
2023-02-05T09:00:31.095Z,1009.91
2023-02-05T09:01:31.113Z,1009.94
2023-02-05T09:02:32.295Z,1009.95
2023-02-05T09:03:31.067Z,1009.94
2023-02-05T09:04:31.057Z,1009.93
2023-02-05T09:05:31.071Z,1009.90
2023-02-05T09:06:31.000Z,1009.87
2023-02-05T09:07:31.011Z,1009.89
2023-02-05T09:08:31.319Z,1009.92
2023-02-05T09:09:30.975Z,1009.90
2023-02-05T09:10:30.947Z,1009.94
2023-02-05T09:11:30.936Z,1009.88
2023-02-05T09:12:30.934Z,1009.91
2023-02-05T09:13:30.906Z,1009.92
2023-02-05T09:14:30.881Z,1009.92
2023-02-05T09:15:30.889Z,1009.93
2023-02-05T09:16:30.919Z,1009.89
2023-02-05T09:17:30.858Z,1009.88
2023-02-05T09:18:30.838Z,1009.86
2023-02-05T09:19:30.842Z,1009.82
2023-02-05T09:20:30.850Z,1009.85
2023-02-05T09:21:30.844Z,1009.80
2023-02-05T09:22:30.791Z,1009.78
2023-02-05T09:23:30.776Z,1009.79
2023-02-05T09:24:30.763Z,1009.78
2023-02-05T09:25:30.797Z,1009.80
2023-02-05T09:26:30.752Z,1009.83
2023-02-05T09:27:30.720Z,1009.76
2023-02-05T09:28:30.749Z,1009.79
2023-02-05T09:29:30.704Z,1009.75
2023-02-05T09:30:30.668Z,1009.73
2023-02-05T09:31:30.821Z,1009.71
2023-02-05T09:32:30.653Z,1009.70
2023-02-05T09:33:30.636Z,1009.72
2023-02-05T09:34:30.621Z,1009.68
2023-02-05T09:35:30.609Z,1009.71
2023-02-05T09:36:30.593Z,1009.66
2023-02-05T09:37:30.808Z,1009.64
2023-02-05T09:38:30.567Z,1009.66
2023-02-05T09:40:17.231Z,1009.64
2023-02-05T09:40:30.527Z,1009.68
2023-02-05T09:41:30.719Z,1009.65
2023-02-05T09:42:30.630Z,1009.63
2023-02-05T09:43:30.489Z,1009.67
2023-02-05T09:44:30.474Z,1009.67
2023-02-05T09:45:30.464Z,1009.66
2023-02-05T09:46:30.528Z,1009.67
2023-02-05T09:47:30.438Z,1009.69
2023-02-05T09:48:30.420Z,1009.64
2023-02-05T09:49:30.392Z,1009.66
2023-02-05T09:50:30.381Z,1009.67
2023-02-05T09:51:30.383Z,1009.66
2023-02-05T09:52:30.363Z,1009.66
2023-02-05T09:53:30.371Z,1009.65
2023-02-05T09:54:30.324Z,1009.63
2023-02-05T09:55:30.309Z,1009.61
2023-02-05T09:56:30.733Z,1009.59
2023-02-05T09:57:30.285Z,1009.56
2023-02-05T09:58:30.266Z,1009.59
2023-02-05T09:59:30.254Z,1009.53
2023-02-05T10:00:30.262Z,1009.51
2023-02-05T10:01:30.263Z,1009.51
2023-02-05T10:02:30.199Z,1009.53
2023-02-05T10:03:30.209Z,1009.51
2023-02-05T10:04:30.324Z,1009.50
2023-02-05T10:05:30.158Z,1009.51
2023-02-05T10:06:30.160Z,1009.49
2023-02-05T10:07:30.144Z,1009.46
2023-02-05T10:08:30.118Z,1009.46
2023-02-05T10:09:30.167Z,1009.49
2023-02-05T10:10:30.301Z,1009.44
2023-02-05T10:11:30.089Z,1009.45
2023-02-05T10:12:30.041Z,1009.46
2023-02-05T10:13:30.031Z,1009.46
2023-02-05T10:14:30.028Z,1009.46
2023-02-05T10:15:30.063Z,1009.45
2023-02-05T10:16:30.032Z,1009.44
2023-02-05T10:17:29.979Z,1009.45
2023-02-05T10:18:29.964Z,1009.44
2023-02-05T10:19:29.974Z,1009.51
2023-02-05T10:20:29.930Z,1009.48
2023-02-05T10:21:29.963Z,1009.49
2023-02-05T10:22:29.938Z,1009.49
2023-02-05T10:23:29.930Z,1009.49
2023-02-05T10:24:29.867Z,1009.44
2023-02-05T10:25:29.870Z,1009.48
2023-02-05T10:26:29.852Z,1009.47
2023-02-05T10:27:29.907Z,1009.48
2023-02-05T10:28:29.821Z,1009.51
2023-02-05T10:29:30.009Z,1009.52
2023-02-05T10:30:29.815Z,1009.50
2023-02-05T10:31:29.903Z,1009.49
2023-02-05T10:32:29.789Z,1009.47
2023-02-05T10:33:29.789Z,1009.43
2023-02-05T10:34:29.743Z,1009.40
2023-02-05T10:35:29.711Z,1009.38
2023-02-05T10:36:29.729Z,1009.33
2023-02-05T10:37:29.703Z,1009.35
2023-02-05T10:38:29.669Z,1009.37
2023-02-05T10:39:29.695Z,1009.36
2023-02-05T10:40:29.638Z,1009.37
2023-02-05T10:41:29.663Z,1009.31
2023-02-05T10:42:29.679Z,1009.34
2023-02-05T10:43:29.636Z,1009.29
2023-02-05T10:44:29.623Z,1009.29
2023-02-05T10:45:29.585Z,1009.26
2023-02-05T10:46:29.592Z,1009.25
2023-02-05T10:47:29.542Z,1009.21
2023-02-05T10:48:29.515Z,1009.13
2023-02-05T10:49:29.493Z,1009.11
2023-02-05T10:50:29.502Z,1009.13
2023-02-05T10:51:29.462Z,1009.10
2023-02-05T10:52:29.473Z,1009.11
2023-02-05T10:53:29.430Z,1009.09
2023-02-05T10:54:29.425Z,1009.12
2023-02-05T10:55:29.404Z,1009.09
2023-02-05T10:56:29.609Z,1009.09
2023-02-05T10:57:29.403Z,1009.10
2023-02-05T10:58:29.358Z,1009.10
2023-02-05T10:59:29.354Z,1009.09
2023-02-05T11:00:29.392Z,1009.12
2023-02-05T11:01:29.328Z,1009.13
2023-02-05T11:02:29.315Z,1009.08
2023-02-05T11:03:29.275Z,1009.08
2023-02-05T11:04:29.252Z,1009.09
2023-02-05T11:05:29.258Z,1009.07
2023-02-05T11:06:29.239Z,1009.07
2023-02-05T11:07:29.223Z,1009.02
2023-02-05T11:08:29.249Z,1009.03
2023-02-05T11:09:29.218Z,1009.02
2023-02-05T11:10:29.170Z,1009.01
2023-02-05T11:11:29.196Z,1009.01
2023-02-05T11:12:29.141Z,1009.00
2023-02-05T11:13:29.164Z,1009.00
2023-02-05T11:14:29.216Z,1008.95
2023-02-05T11:15:29.153Z,1008.93
2023-02-05T11:16:29.114Z,1008.94
2023-02-05T11:17:29.083Z,1008.94
2023-02-05T11:18:29.104Z,1008.98
2023-02-05T11:19:29.048Z,1008.94
2023-02-05T11:20:29.065Z,1008.93
2023-02-05T11:21:29.022Z,1008.90
2023-02-05T11:22:29.003Z,1008.93
2023-02-05T11:23:29.014Z,1008.95
2023-02-05T11:24:28.991Z,1008.94
2023-02-05T11:25:30.508Z,1008.93
2023-02-05T11:26:28.950Z,1008.94
2023-02-05T11:27:28.917Z,1008.92
2023-02-05T11:28:28.904Z,1008.89
2023-02-05T11:29:28.935Z,1008.90
2023-02-05T11:30:59.278Z,1008.82
2023-02-05T11:31:28.991Z,1008.84
2023-02-05T11:32:28.850Z,1008.91
2023-02-05T11:33:28.831Z,1008.88
2023-02-05T11:34:28.803Z,1008.89
2023-02-05T11:35:28.831Z,1008.86
2023-02-05T11:36:28.769Z,1008.89
2023-02-05T11:37:28.764Z,1008.88
2023-02-05T11:38:28.741Z,1008.88
2023-02-05T11:39:28.734Z,1008.90
2023-02-05T11:40:28.947Z,1008.87
2023-02-05T11:41:28.703Z,1008.85
2023-02-05T11:42:28.691Z,1008.86
2023-02-05T11:43:28.672Z,1008.89
2023-02-05T11:44:30.284Z,1008.87
2023-02-05T11:45:28.689Z,1008.86
2023-02-05T11:46:28.715Z,1008.85
2023-02-05T11:47:28.621Z,1008.87
2023-02-05T11:48:28.591Z,1008.84
2023-02-05T11:49:28.585Z,1008.85
2023-02-05T11:50:28.608Z,1008.82
2023-02-05T11:51:28.571Z,1008.83
2023-02-05T11:52:28.534Z,1008.83
2023-02-05T11:53:28.553Z,1008.86
2023-02-05T11:54:28.510Z,1008.79
2023-02-05T11:55:28.722Z,1008.82
2023-02-05T11:56:28.482Z,1008.77
2023-02-05T11:57:28.480Z,1008.86
2023-02-05T11:58:36.468Z,1008.83
2023-02-05T11:59:28.443Z,1008.80
2023-02-05T12:00:28.423Z,1008.83
2023-02-05T12:01:28.437Z,1008.80
2023-02-05T12:02:28.756Z,1008.81
2023-02-05T12:03:28.383Z,1008.79
2023-02-05T12:04:28.558Z,1008.78
2023-02-05T12:05:28.399Z,1008.77